FranceFixed distance
Festival des Templiers - La Boffi Fifty
22 Oct2022
Distance
48.4km
Finishers
687532 men155 women
Winning time
4:32:10h
Median pace
5.60km/h
Pace distribution
687 finishers · 3.70–10.67 km/h · mean 5.79
Every finisher ran the same 48.4 km course, so these paces are directly comparable.
Histogram of finisher pace. 687 finishers ranged from 3.70 to 10.67 kilometres per hour, with a mean of 5.79 and a median of 5.60. The busiest band is 5.0 to 5.5 kilometres per hour, with 167 finishers.
Results
Ranks 551–600 of 687
| Rank | Runner | Time | Pace | Cat. | Placing |
|---|---|---|---|---|---|
| 551 | Running Club Campigny | 9:46:51h | 4.95 | M50 | 436th M · 52nd M50 |
| 552 | August Running Team | 9:47:10h | 4.95 | M40 | 437th M · 69th M40 |
| 553 | Endurance 23 la Souter... | 9:47:16h | 4.95 | M40 | 438th M · 70th M40 |
| 554 | les Joggeurs de Ducey | 9:47:18h | 4.95 | M23 | 439th M · 106th M23 |
| 555 | Plaintel Aventure | 9:47:59h | 4.94 | M40 | 440th M · 71st M40 |
| 556 | Plaintel Aventure | 9:48:00h | 4.94 | M45 | 441st M · 62nd M45 |
| 557 | ETC Chanterac | 9:48:48h | 4.93 | M40 | 442nd M · 72nd M40 |
| 558 | *Millau | 9:49:03h | 4.93 | W50 | 116th F · 5th W50 |
| 559 | Brissac Loire Aubance ... | 9:49:13h | 4.93 | M45 | 443rd M · 63rd M45 |
| 560 | *Mortagne Sur Sevre | 9:49:58h | 4.92 | W35 | 117th F · 19th W35 |
| 561 | Entente Sevre | 9:49:59h | 4.92 | M35 | 444th M · 68th M35 |
| 562 | *Martigne-Briand | 9:51:15h | 4.91 | — | 445th M |
| 563 | *Nantes | 9:51:25h | 4.91 | M23 | 446th M · 107th M23 |
| 564 | *Saint Nom La Breteche | 9:51:41h | 4.91 | M55 | 447th M · 19th M55 |
| 565 | *Souvret | 9:52:24h | 4.90 | M45 | 448th M · 64th M45 |
| 566 | *Faremoutiers | 9:54:03h | 4.89 | M50 | 449th M · 53rd M50 |
| 567 | Uatj | 9:54:07h | 4.89 | M50 | 450th M · 54th M50 |
| 568 | *Perly | 9:54:31h | 4.88 | — | 451st M |
| 569 | Concorde Club Triathlo... | 9:55:36h | 4.88 | — | 452nd M |
| 570 | Bussy Saint Georges At... | 9:55:40h | 4.88 | W45 | 118th F · 21st W45 |
| 571 | *Le Loroux Bottereau | 9:56:50h | 4.87 | M45 | 453rd M · 65th M45 |
| 572 | Tri-Aventure Pays de F... | 9:57:24h | 4.86 | M23 | 454th M · 108th M23 |
| 573 | Aspoc | 9:58:46h | 4.85 | M40 | 455th M · 73rd M40 |
| 574 | *Groslay | 9:59:11h | 4.85 | M50 | 456th M · 55th M50 |
| 575 | *Nantes | 9:59:29h | 4.84 | M40 | 457th M · 74th M40 |
| 576 | Jogging Club Nieulais | 9:59:43h | 4.84 | M45 | 458th M · 66th M45 |
| 577 | Fsgt Ville D'Allonnes | 10:00:14h | 4.84 | M60 | 459th M · 5th M60 |
| 578 | *Neuville Sur Sarthe | 10:00:15h | 4.84 | M45 | 460th M · 67th M45 |
| 579 | *Le Tremblay | 10:00:29h | 4.84 | M23 | 461st M · 109th M23 |
| 580 | ITA Angers | 10:00:57h | 4.83 | M55 | 462nd M · 20th M55 |
| 581 | *Saint Jean De Linieres | 10:00:59h | 4.83 | — | 119th F |
| 582 | Courir A Pouldreuzic | 10:01:53h | 4.83 | M40 | 463rd M · 75th M40 |
| 583 | Sport Nature Lamastre | 10:03:49h | 4.81 | W55 | 120th F · 8th W55 |
| 584 | *Marcq En Baroeul | 10:04:42h | 4.80 | W45 | 121st F · 22nd W45 |
| 585 | *Brive La Gaillarde | 10:06:39h | 4.79 | W35 | 122nd F · 20th W35 |
| 586 | les Increvables | 10:06:45h | 4.79 | M45 | 464th M · 68th M45 |
| 587 | Trail Irago Running | 10:10:35h | 4.76 | — | 465th M |
| 588 | *St Maurice Du Desert | 10:10:53h | 4.75 | M45 | 466th M · 69th M45 |
| 589 | *Les Monts D Andaine | 10:10:54h | 4.75 | W40 | 123rd F · 20th W40 |
| 590 | SO Houilles | 10:11:24h | 4.75 | W23 | 124th F · 29th W23 |
| 591 | Core Elbeuf | 10:11:32h | 4.75 | W45 | 125th F · 23rd W45 |
| 592 | *Saint-Jean-D'Angély | 10:11:46h | 4.75 | — | 467th M |
| 593 | *Dompierre Sur Mer ( 1... | 10:12:40h | 4.74 | W23 | 126th F · 30th W23 |
| 594 | ASA du Berry | 10:12:47h | 4.74 | — | 468th M |
| 595 | Asab | 10:12:49h | 4.74 | W40 | 127th F · 21st W40 |
| 596 | *Montlouis-Sur-Loire | 10:13:04h | 4.74 | M50 | 469th M · 56th M50 |
| 597 | EAC | 10:14:37h | 4.72 | M50 | 470th M · 57th M50 |
| 598 | LA Fare Sport Nature | 10:14:46h | 4.72 | W23 | 128th F · 31st W23 |
| 599 | Raid Apte | 10:16:56h | 4.71 | M45 | 471st M · 70th M45 |
| 600 | *Varennes Sur Allier | 10:17:11h | 4.71 | — | 129th F |
- 551Running Club Campigny436th M · 52nd M50Time9:46:51hPace4.95Cat.M50
- 552August Running Team437th M · 69th M40Time9:47:10hPace4.95Cat.M40
- 553Endurance 23 la Souter...438th M · 70th M40Time9:47:16hPace4.95Cat.M40
- 554les Joggeurs de Ducey439th M · 106th M23Time9:47:18hPace4.95Cat.M23
- 555Plaintel Aventure440th M · 71st M40Time9:47:59hPace4.94Cat.M40
- 556Plaintel Aventure441st M · 62nd M45Time9:48:00hPace4.94Cat.M45
- 557ETC Chanterac442nd M · 72nd M40Time9:48:48hPace4.93Cat.M40
- 558*Millau116th F · 5th W50Time9:49:03hPace4.93Cat.W50
- 559Brissac Loire Aubance ...443rd M · 63rd M45Time9:49:13hPace4.93Cat.M45
- 560*Mortagne Sur Sevre117th F · 19th W35Time9:49:58hPace4.92Cat.W35
- 561Entente Sevre444th M · 68th M35Time9:49:59hPace4.92Cat.M35
- 562*Martigne-Briand445th MTime9:51:15hPace4.91
- 563*Nantes446th M · 107th M23Time9:51:25hPace4.91Cat.M23
- 564*Saint Nom La Breteche447th M · 19th M55Time9:51:41hPace4.91Cat.M55
- 565*Souvret448th M · 64th M45Time9:52:24hPace4.90Cat.M45
- 566*Faremoutiers449th M · 53rd M50Time9:54:03hPace4.89Cat.M50
- 567Uatj450th M · 54th M50Time9:54:07hPace4.89Cat.M50
- 568*Perly451st MTime9:54:31hPace4.88
- 569Concorde Club Triathlo...452nd MTime9:55:36hPace4.88
- 570Bussy Saint Georges At...118th F · 21st W45Time9:55:40hPace4.88Cat.W45
- 571*Le Loroux Bottereau453rd M · 65th M45Time9:56:50hPace4.87Cat.M45
- 572Tri-Aventure Pays de F...454th M · 108th M23Time9:57:24hPace4.86Cat.M23
- 573Aspoc455th M · 73rd M40Time9:58:46hPace4.85Cat.M40
- 574*Groslay456th M · 55th M50Time9:59:11hPace4.85Cat.M50
- 575*Nantes457th M · 74th M40Time9:59:29hPace4.84Cat.M40
- 576Jogging Club Nieulais458th M · 66th M45Time9:59:43hPace4.84Cat.M45
- 577Fsgt Ville D'Allonnes459th M · 5th M60Time10:00:14hPace4.84Cat.M60
- 578*Neuville Sur Sarthe460th M · 67th M45Time10:00:15hPace4.84Cat.M45
- 579*Le Tremblay461st M · 109th M23Time10:00:29hPace4.84Cat.M23
- 580ITA Angers462nd M · 20th M55Time10:00:57hPace4.83Cat.M55
- 581*Saint Jean De Linieres119th FTime10:00:59hPace4.83
- 582Courir A Pouldreuzic463rd M · 75th M40Time10:01:53hPace4.83Cat.M40
- 583Sport Nature Lamastre120th F · 8th W55Time10:03:49hPace4.81Cat.W55
- 584*Marcq En Baroeul121st F · 22nd W45Time10:04:42hPace4.80Cat.W45
- 585*Brive La Gaillarde122nd F · 20th W35Time10:06:39hPace4.79Cat.W35
- 586les Increvables464th M · 68th M45Time10:06:45hPace4.79Cat.M45
- 587Trail Irago Running465th MTime10:10:35hPace4.76
- 588*St Maurice Du Desert466th M · 69th M45Time10:10:53hPace4.75Cat.M45
- 589*Les Monts D Andaine123rd F · 20th W40Time10:10:54hPace4.75Cat.W40
- 590SO Houilles124th F · 29th W23Time10:11:24hPace4.75Cat.W23
- 591Core Elbeuf125th F · 23rd W45Time10:11:32hPace4.75Cat.W45
- 592*Saint-Jean-D'Angély467th MTime10:11:46hPace4.75
- 593*Dompierre Sur Mer ( 1...126th F · 30th W23Time10:12:40hPace4.74Cat.W23
- 594ASA du Berry468th MTime10:12:47hPace4.74
- 595Asab127th F · 21st W40Time10:12:49hPace4.74Cat.W40
- 596*Montlouis-Sur-Loire469th M · 56th M50Time10:13:04hPace4.74Cat.M50
- 597EAC470th M · 57th M50Time10:14:37hPace4.72Cat.M50
- 598LA Fare Sport Nature128th F · 31st W23Time10:14:46hPace4.72Cat.W23
- 599Raid Apte471st M · 70th M45Time10:16:56hPace4.71Cat.M45
- 600*Varennes Sur Allier129th FTime10:17:11hPace4.71
Showing ranks 551–600 of 687